sensor_id;sensor_type;location;lat;lon;timestamp;temperature;humidity
51383;DHT22;37475;43.358;1.248;2023-03-04T00:02:00;2.90;84.60
51383;DHT22;37475;43.358;1.248;2023-03-04T00:04:26;2.90;84.70
51383;DHT22;37475;43.358;1.248;2023-03-04T00:06:51;3.10;84.40
51383;DHT22;37475;43.358;1.248;2023-03-04T00:09:17;3.20;83.80
51383;DHT22;37475;43.358;1.248;2023-03-04T00:11:43;3.20;83.40
51383;DHT22;37475;43.358;1.248;2023-03-04T00:14:09;3.20;83.20
51383;DHT22;37475;43.358;1.248;2023-03-04T00:16:35;3.20;83.30
51383;DHT22;37475;43.358;1.248;2023-03-04T00:19:01;3.10;83.90
51383;DHT22;37475;43.358;1.248;2023-03-04T00:21:26;3.20;83.60
51383;DHT22;37475;43.358;1.248;2023-03-04T00:23:52;3.30;83.20
51383;DHT22;37475;43.358;1.248;2023-03-04T00:26:18;3.30;82.90
51383;DHT22;37475;43.358;1.248;2023-03-04T00:28:44;3.30;83.00
51383;DHT22;37475;43.358;1.248;2023-03-04T00:31:10;3.20;83.70
51383;DHT22;37475;43.358;1.248;2023-03-04T00:33:36;3.10;84.10
51383;DHT22;37475;43.358;1.248;2023-03-04T00:36:03;3.10;84.10
51383;DHT22;37475;43.358;1.248;2023-03-04T00:38:29;3.10;84.10
51383;DHT22;37475;43.358;1.248;2023-03-04T00:40:55;3.10;83.90
51383;DHT22;37475;43.358;1.248;2023-03-04T00:43:21;3.10;84.20
51383;DHT22;37475;43.358;1.248;2023-03-04T00:45:47;3.00;84.70
51383;DHT22;37475;43.358;1.248;2023-03-04T00:48:13;3.00;85.00
51383;DHT22;37475;43.358;1.248;2023-03-04T00:50:41;3.10;85.10
51383;DHT22;37475;43.358;1.248;2023-03-04T00:53:07;3.10;85.10
51383;DHT22;37475;43.358;1.248;2023-03-04T00:55:33;3.20;84.60
51383;DHT22;37475;43.358;1.248;2023-03-04T00:57:59;3.20;84.30
51383;DHT22;37475;43.358;1.248;2023-03-04T01:00:25;3.30;83.80
51383;DHT22;37475;43.358;1.248;2023-03-04T01:02:50;3.30;83.80
51383;DHT22;37475;43.358;1.248;2023-03-04T01:05:16;3.30;83.70
51383;DHT22;37475;43.358;1.248;2023-03-04T01:07:42;3.30;84.10
51383;DHT22;37475;43.358;1.248;2023-03-04T01:10:10;3.30;84.00
51383;DHT22;37475;43.358;1.248;2023-03-04T01:12:37;3.40;83.60
51383;DHT22;37475;43.358;1.248;2023-03-04T01:15:05;3.20;84.30
51383;DHT22;37475;43.358;1.248;2023-03-04T01:17:31;3.20;84.70
51383;DHT22;37475;43.358;1.248;2023-03-04T01:19:57;3.10;85.00
51383;DHT22;37475;43.358;1.248;2023-03-04T01:22:23;3.20;84.90
51383;DHT22;37475;43.358;1.248;2023-03-04T01:24:48;3.20;84.90
51383;DHT22;37475;43.358;1.248;2023-03-04T01:27:15;3.30;84.70
51383;DHT22;37475;43.358;1.248;2023-03-04T01:29:41;3.40;84.30
51383;DHT22;37475;43.358;1.248;2023-03-04T01:32:07;3.30;84.40
51383;DHT22;37475;43.358;1.248;2023-03-04T01:34:33;3.30;84.80
51383;DHT22;37475;43.358;1.248;2023-03-04T01:36:58;3.40;84.80
51383;DHT22;37475;43.358;1.248;2023-03-04T01:39:24;3.30;84.80
51383;DHT22;37475;43.358;1.248;2023-03-04T01:41:50;3.40;84.90
51383;DHT22;37475;43.358;1.248;2023-03-04T01:44:16;3.50;84.80
51383;DHT22;37475;43.358;1.248;2023-03-04T01:46:47;3.50;84.60
51383;DHT22;37475;43.358;1.248;2023-03-04T01:49:15;3.60;84.30
51383;DHT22;37475;43.358;1.248;2023-03-04T01:51:51;3.60;84.00
51383;DHT22;37475;43.358;1.248;2023-03-04T01:54:20;3.60;84.10
51383;DHT22;37475;43.358;1.248;2023-03-04T01:56:48;3.40;84.60
51383;DHT22;37475;43.358;1.248;2023-03-04T01:59:16;3.40;84.80
51383;DHT22;37475;43.358;1.248;2023-03-04T02:01:46;3.50;84.50
51383;DHT22;37475;43.358;1.248;2023-03-04T02:04:16;3.60;84.40
51383;DHT22;37475;43.358;1.248;2023-03-04T02:06:44;3.60;84.10
51383;DHT22;37475;43.358;1.248;2023-03-04T02:09:11;3.70;83.90
51383;DHT22;37475;43.358;1.248;2023-03-04T02:11:39;3.70;83.80
51383;DHT22;37475;43.358;1.248;2023-03-04T02:14:06;3.70;83.90
51383;DHT22;37475;43.358;1.248;2023-03-04T02:16:33;3.60;84.20
51383;DHT22;37475;43.358;1.248;2023-03-04T02:18:59;3.70;84.00
51383;DHT22;37475;43.358;1.248;2023-03-04T02:21:28;3.70;84.00
51383;DHT22;37475;43.358;1.248;2023-03-04T02:24:17;3.60;84.40
51383;DHT22;37475;43.358;1.248;2023-03-04T02:26:46;3.60;84.70
51383;DHT22;37475;43.358;1.248;2023-03-04T02:29:13;3.40;85.20
51383;DHT22;37475;43.358;1.248;2023-03-04T02:31:49;3.40;85.50
51383;DHT22;37475;43.358;1.248;2023-03-04T02:34:26;3.40;85.70
51383;DHT22;37475;43.358;1.248;2023-03-04T02:36:55;3.60;85.60
51383;DHT22;37475;43.358;1.248;2023-03-04T02:39:32;3.60;85.10
51383;DHT22;37475;43.358;1.248;2023-03-04T02:41:59;3.70;84.80
51383;DHT22;37475;43.358;1.248;2023-03-04T02:44:32;3.70;84.90
51383;DHT22;37475;43.358;1.248;2023-03-04T02:47:00;3.60;85.20
51383;DHT22;37475;43.358;1.248;2023-03-04T02:49:28;3.60;85.40
51383;DHT22;37475;43.358;1.248;2023-03-04T02:52:12;3.60;85.60
51383;DHT22;37475;43.358;1.248;2023-03-04T02:54:45;3.60;85.30
51383;DHT22;37475;43.358;1.248;2023-03-04T02:57:13;3.50;85.50
51383;DHT22;37475;43.358;1.248;2023-03-04T02:59:40;3.40;86.20
51383;DHT22;37475;43.358;1.248;2023-03-04T03:02:07;3.30;86.60
51383;DHT22;37475;43.358;1.248;2023-03-04T03:04:34;3.40;86.60
51383;DHT22;37475;43.358;1.248;2023-03-04T03:07:01;3.20;86.80
51383;DHT22;37475;43.358;1.248;2023-03-04T03:09:27;3.20;87.00
51383;DHT22;37475;43.358;1.248;2023-03-04T03:11:53;3.20;87.10
51383;DHT22;37475;43.358;1.248;2023-03-04T03:14:19;3.20;87.00
51383;DHT22;37475;43.358;1.248;2023-03-04T03:16:45;3.30;86.90
51383;DHT22;37475;43.358;1.248;2023-03-04T03:19:11;3.30;86.90
51383;DHT22;37475;43.358;1.248;2023-03-04T03:21:36;3.40;86.70
51383;DHT22;37475;43.358;1.248;2023-03-04T03:24:02;3.50;86.50
51383;DHT22;37475;43.358;1.248;2023-03-04T03:26:28;3.50;86.10
51383;DHT22;37475;43.358;1.248;2023-03-04T03:28:54;3.60;85.80
51383;DHT22;37475;43.358;1.248;2023-03-04T03:31:20;3.60;85.70
51383;DHT22;37475;43.358;1.248;2023-03-04T03:33:46;3.60;85.60
51383;DHT22;37475;43.358;1.248;2023-03-04T03:36:11;3.40;85.70
51383;DHT22;37475;43.358;1.248;2023-03-04T03:38:37;3.40;86.20
51383;DHT22;37475;43.358;1.248;2023-03-04T03:41:03;3.50;86.10
51383;DHT22;37475;43.358;1.248;2023-03-04T03:43:29;3.50;85.80
51383;DHT22;37475;43.358;1.248;2023-03-04T03:45:55;3.40;85.90
51383;DHT22;37475;43.358;1.248;2023-03-04T03:48:21;3.40;86.10
51383;DHT22;37475;43.358;1.248;2023-03-04T03:50:46;3.50;86.00
51383;DHT22;37475;43.358;1.248;2023-03-04T03:53:12;3.60;85.80
51383;DHT22;37475;43.358;1.248;2023-03-04T03:55:38;3.60;85.60
51383;DHT22;37475;43.358;1.248;2023-03-04T03:58:04;3.50;85.50
51383;DHT22;37475;43.358;1.248;2023-03-04T04:00:30;3.30;86.10
51383;DHT22;37475;43.358;1.248;2023-03-04T04:02:57;3.40;86.10
51383;DHT22;37475;43.358;1.248;2023-03-04T04:05:24;3.40;86.20
51383;DHT22;37475;43.358;1.248;2023-03-04T04:07:49;3.40;86.10
51383;DHT22;37475;43.358;1.248;2023-03-04T04:10:15;3.40;86.10
51383;DHT22;37475;43.358;1.248;2023-03-04T04:12:41;3.40;86.20
51383;DHT22;37475;43.358;1.248;2023-03-04T04:15:10;3.40;86.10
51383;DHT22;37475;43.358;1.248;2023-03-04T04:17:36;3.30;86.20
51383;DHT22;37475;43.358;1.248;2023-03-04T04:20:02;3.40;86.10
51383;DHT22;37475;43.358;1.248;2023-03-04T04:22:28;3.20;86.60
51383;DHT22;37475;43.358;1.248;2023-03-04T04:24:54;3.20;87.00
51383;DHT22;37475;43.358;1.248;2023-03-04T04:27:20;3.20;87.10
51383;DHT22;37475;43.358;1.248;2023-03-04T04:29:46;3.30;86.80
51383;DHT22;37475;43.358;1.248;2023-03-04T04:32:12;3.30;86.40
51383;DHT22;37475;43.358;1.248;2023-03-04T04:34:38;3.40;86.20
51383;DHT22;37475;43.358;1.248;2023-03-04T04:37:04;3.30;85.90
51383;DHT22;37475;43.358;1.248;2023-03-04T04:39:30;3.30;85.70
51383;DHT22;37475;43.358;1.248;2023-03-04T04:41:55;3.30;85.60
51383;DHT22;37475;43.358;1.248;2023-03-04T04:44:21;3.40;85.40
51383;DHT22;37475;43.358;1.248;2023-03-04T04:46:47;3.20;85.00
51383;DHT22;37475;43.358;1.248;2023-03-04T04:49:13;3.10;85.40
51383;DHT22;37475;43.358;1.248;2023-03-04T04:51:38;3.00;86.00
51383;DHT22;37475;43.358;1.248;2023-03-04T04:54:05;2.90;86.10
51383;DHT22;37475;43.358;1.248;2023-03-04T04:56:31;2.90;86.40
51383;DHT22;37475;43.358;1.248;2023-03-04T04:58:59;2.90;86.20
51383;DHT22;37475;43.358;1.248;2023-03-04T05:01:27;2.90;86.00
51383;DHT22;37475;43.358;1.248;2023-03-04T05:03:53;2.80;85.90
51383;DHT22;37475;43.358;1.248;2023-03-04T05:06:20;2.80;85.80
51383;DHT22;37475;43.358;1.248;2023-03-04T05:08:47;2.80;85.90
51383;DHT22;37475;43.358;1.248;2023-03-04T05:11:14;2.70;85.80
51383;DHT22;37475;43.358;1.248;2023-03-04T05:13:40;2.70;85.60
51383;DHT22;37475;43.358;1.248;2023-03-04T05:16:06;2.60;85.80
51383;DHT22;37475;43.358;1.248;2023-03-04T05:18:32;2.60;85.80
51383;DHT22;37475;43.358;1.248;2023-03-04T05:21:00;2.60;85.60
51383;DHT22;37475;43.358;1.248;2023-03-04T05:23:30;2.60;85.40
51383;DHT22;37475;43.358;1.248;2023-03-04T05:25:58;2.50;85.40
51383;DHT22;37475;43.358;1.248;2023-03-04T05:28:26;2.50;85.50
51383;DHT22;37475;43.358;1.248;2023-03-04T05:30:52;2.50;85.40
51383;DHT22;37475;43.358;1.248;2023-03-04T05:33:18;2.40;85.30
51383;DHT22;37475;43.358;1.248;2023-03-04T05:35:45;2.40;85.20
51383;DHT22;37475;43.358;1.248;2023-03-04T05:38:14;2.40;85.30
51383;DHT22;37475;43.358;1.248;2023-03-04T05:40:42;2.40;85.20
51383;DHT22;37475;43.358;1.248;2023-03-04T05:43:08;2.30;85.10
51383;DHT22;37475;43.358;1.248;2023-03-04T05:45:34;2.20;85.50
51383;DHT22;37475;43.358;1.248;2023-03-04T05:48:00;2.10;85.80
51383;DHT22;37475;43.358;1.248;2023-03-04T05:50:27;2.10;86.40
51383;DHT22;37475;43.358;1.248;2023-03-04T05:52:53;2.00;87.00
51383;DHT22;37475;43.358;1.248;2023-03-04T05:55:19;2.10;87.00
51383;DHT22;37475;43.358;1.248;2023-03-04T05:57:45;2.00;86.80
51383;DHT22;37475;43.358;1.248;2023-03-04T06:00:12;2.10;86.80
51383;DHT22;37475;43.358;1.248;2023-03-04T06:02:39;2.10;86.70
51383;DHT22;37475;43.358;1.248;2023-03-04T06:05:07;2.20;86.80
51383;DHT22;37475;43.358;1.248;2023-03-04T06:07:33;2.20;86.80
51383;DHT22;37475;43.358;1.248;2023-03-04T06:09:59;2.20;87.00
51383;DHT22;37475;43.358;1.248;2023-03-04T06:12:25;2.10;87.30
51383;DHT22;37475;43.358;1.248;2023-03-04T06:14:53;2.20;87.40
51383;DHT22;37475;43.358;1.248;2023-03-04T06:17:19;2.20;87.50
51383;DHT22;37475;43.358;1.248;2023-03-04T06:19:45;2.20;87.40
51383;DHT22;37475;43.358;1.248;2023-03-04T06:22:11;2.20;87.30
51383;DHT22;37475;43.358;1.248;2023-03-04T06:24:37;2.20;87.40
51383;DHT22;37475;43.358;1.248;2023-03-04T06:27:03;2.30;87.50
51383;DHT22;37475;43.358;1.248;2023-03-04T06:29:30;2.30;87.50
51383;DHT22;37475;43.358;1.248;2023-03-04T06:31:56;2.40;87.50
51383;DHT22;37475;43.358;1.248;2023-03-04T06:34:21;2.30;87.50
51383;DHT22;37475;43.358;1.248;2023-03-04T06:36:47;2.20;88.00
51383;DHT22;37475;43.358;1.248;2023-03-04T06:39:13;2.20;88.40
51383;DHT22;37475;43.358;1.248;2023-03-04T06:41:39;2.30;88.30
51383;DHT22;37475;43.358;1.248;2023-03-04T06:44:05;2.30;88.10
51383;DHT22;37475;43.358;1.248;2023-03-04T06:46:34;2.20;88.50
51383;DHT22;37475;43.358;1.248;2023-03-04T06:49:00;2.10;89.10
51383;DHT22;37475;43.358;1.248;2023-03-04T06:51:27;2.20;89.20
51383;DHT22;37475;43.358;1.248;2023-03-04T06:53:53;2.30;89.40
51383;DHT22;37475;43.358;1.248;2023-03-04T06:56:19;2.40;89.30
51383;DHT22;37475;43.358;1.248;2023-03-04T06:58:45;2.50;89.10
51383;DHT22;37475;43.358;1.248;2023-03-04T07:01:23;2.60;88.90
51383;DHT22;37475;43.358;1.248;2023-03-04T07:03:51;2.60;88.70
51383;DHT22;37475;43.358;1.248;2023-03-04T07:06:20;2.60;88.70
51383;DHT22;37475;43.358;1.248;2023-03-04T07:08:47;2.70;88.70
51383;DHT22;37475;43.358;1.248;2023-03-04T07:11:14;2.80;88.50
51383;DHT22;37475;43.358;1.248;2023-03-04T07:13:40;2.80;88.20
51383;DHT22;37475;43.358;1.248;2023-03-04T07:16:09;2.90;88.10
51383;DHT22;37475;43.358;1.248;2023-03-04T07:18:36;2.90;88.30
51383;DHT22;37475;43.358;1.248;2023-03-04T07:21:03;3.00;88.70
51383;DHT22;37475;43.358;1.248;2023-03-04T07:23:30;3.10;89.00
51383;DHT22;37475;43.358;1.248;2023-03-04T07:25:56;3.10;88.70
51383;DHT22;37475;43.358;1.248;2023-03-04T07:28:22;3.20;88.90
51383;DHT22;37475;43.358;1.248;2023-03-04T07:30:48;3.30;88.70
51383;DHT22;37475;43.358;1.248;2023-03-04T07:33:14;3.40;88.70
51383;DHT22;37475;43.358;1.248;2023-03-04T07:35:40;3.50;88.60
51383;DHT22;37475;43.358;1.248;2023-03-04T07:38:06;3.60;88.50
51383;DHT22;37475;43.358;1.248;2023-03-04T07:40:32;3.60;88.80
51383;DHT22;37475;43.358;1.248;2023-03-04T07:42:58;3.60;88.50
51383;DHT22;37475;43.358;1.248;2023-03-04T07:45:25;3.60;88.00
51383;DHT22;37475;43.358;1.248;2023-03-04T07:47:51;3.60;87.40
51383;DHT22;37475;43.358;1.248;2023-03-04T07:50:17;3.60;86.10
51383;DHT22;37475;43.358;1.248;2023-03-04T07:52:45;3.70;85.50
51383;DHT22;37475;43.358;1.248;2023-03-04T07:55:14;3.70;85.20
51383;DHT22;37475;43.358;1.248;2023-03-04T07:57:41;3.70;85.30
51383;DHT22;37475;43.358;1.248;2023-03-04T08:00:10;3.80;85.30
51383;DHT22;37475;43.358;1.248;2023-03-04T08:02:36;3.90;85.30
51383;DHT22;37475;43.358;1.248;2023-03-04T08:05:02;4.10;85.30
51383;DHT22;37475;43.358;1.248;2023-03-04T08:07:28;4.20;85.10
51383;DHT22;37475;43.358;1.248;2023-03-04T08:09:54;4.30;85.00
51383;DHT22;37475;43.358;1.248;2023-03-04T08:12:20;4.20;84.40
51383;DHT22;37475;43.358;1.248;2023-03-04T08:14:46;4.40;84.80
51383;DHT22;37475;43.358;1.248;2023-03-04T08:17:11;4.40;85.00
51383;DHT22;37475;43.358;1.248;2023-03-04T08:19:39;4.40;84.90
51383;DHT22;37475;43.358;1.248;2023-03-04T08:22:06;4.60;85.00
51383;DHT22;37475;43.358;1.248;2023-03-04T08:24:32;4.70;84.90
51383;DHT22;37475;43.358;1.248;2023-03-04T08:26:58;4.90;84.40
51383;DHT22;37475;43.358;1.248;2023-03-04T08:29:25;4.90;83.50
51383;DHT22;37475;43.358;1.248;2023-03-04T08:31:52;4.90;82.80
51383;DHT22;37475;43.358;1.248;2023-03-04T08:34:20;5.00;83.20
51383;DHT22;37475;43.358;1.248;2023-03-04T08:36:47;5.00;83.00
51383;DHT22;37475;43.358;1.248;2023-03-04T08:39:15;5.10;82.40
51383;DHT22;37475;43.358;1.248;2023-03-04T08:41:41;5.20;82.00
51383;DHT22;37475;43.358;1.248;2023-03-04T08:44:08;5.40;82.00
51383;DHT22;37475;43.358;1.248;2023-03-04T08:46:35;5.40;81.80
51383;DHT22;37475;43.358;1.248;2023-03-04T08:49:02;5.50;80.20
51383;DHT22;37475;43.358;1.248;2023-03-04T08:51:29;5.60;80.00
51383;DHT22;37475;43.358;1.248;2023-03-04T08:53:55;5.70;79.70
51383;DHT22;37475;43.358;1.248;2023-03-04T08:56:21;5.80;80.10
51383;DHT22;37475;43.358;1.248;2023-03-04T08:58:47;5.90;80.00
51383;DHT22;37475;43.358;1.248;2023-03-04T09:01:13;6.00;79.30
51383;DHT22;37475;43.358;1.248;2023-03-04T09:03:40;6.10;78.20
51383;DHT22;37475;43.358;1.248;2023-03-04T09:06:07;6.20;77.90
51383;DHT22;37475;43.358;1.248;2023-03-04T09:08:34;6.30;77.50
51383;DHT22;37475;43.358;1.248;2023-03-04T09:11:00;6.40;77.00
51383;DHT22;37475;43.358;1.248;2023-03-04T09:13:28;6.50;75.90
51383;DHT22;37475;43.358;1.248;2023-03-04T09:15:55;6.50;74.60
51383;DHT22;37475;43.358;1.248;2023-03-04T09:18:22;6.60;74.20
51383;DHT22;37475;43.358;1.248;2023-03-04T09:20:49;6.70;75.30
51383;DHT22;37475;43.358;1.248;2023-03-04T09:23:15;6.80;73.60
51383;DHT22;37475;43.358;1.248;2023-03-04T09:25:43;6.90;71.50
51383;DHT22;37475;43.358;1.248;2023-03-04T09:28:14;6.90;70.00
51383;DHT22;37475;43.358;1.248;2023-03-04T09:30:41;7.00;71.40
51383;DHT22;37475;43.358;1.248;2023-03-04T09:33:07;7.10;70.10
51383;DHT22;37475;43.358;1.248;2023-03-04T09:35:34;7.10;68.80
51383;DHT22;37475;43.358;1.248;2023-03-04T09:38:00;7.10;70.10
51383;DHT22;37475;43.358;1.248;2023-03-04T09:40:52;7.10;67.40
51383;DHT22;37475;43.358;1.248;2023-03-04T09:43:21;7.10;66.80
51383;DHT22;37475;43.358;1.248;2023-03-04T09:45:56;7.10;66.50
51383;DHT22;37475;43.358;1.248;2023-03-04T09:48:27;7.10;67.00
51383;DHT22;37475;43.358;1.248;2023-03-04T09:51:19;7.10;66.10
51383;DHT22;37475;43.358;1.248;2023-03-04T09:56:35;7.30;66.40
51383;DHT22;37475;43.358;1.248;2023-03-04T09:59:23;7.40;67.70
51383;DHT22;37475;43.358;1.248;2023-03-04T10:01:55;7.40;66.40
51383;DHT22;37475;43.358;1.248;2023-03-04T10:04:41;7.50;65.80
51383;DHT22;37475;43.358;1.248;2023-03-04T10:07:18;7.40;63.10
51383;DHT22;37475;43.358;1.248;2023-03-04T10:09:53;7.40;63.80
51383;DHT22;37475;43.358;1.248;2023-03-04T10:12:23;7.50;64.50
51383;DHT22;37475;43.358;1.248;2023-03-04T10:15:16;7.60;63.40
51383;DHT22;37475;43.358;1.248;2023-03-04T10:17:51;7.80;64.80
51383;DHT22;37475;43.358;1.248;2023-03-04T10:20:24;7.80;60.70
51383;DHT22;37475;43.358;1.248;2023-03-04T10:23:10;7.90;62.30
51383;DHT22;37475;43.358;1.248;2023-03-04T10:25:43;7.90;61.20
51383;DHT22;37475;43.358;1.248;2023-03-04T10:28:30;7.80;60.30
51383;DHT22;37475;43.358;1.248;2023-03-04T10:31:11;8.10;62.70
51383;DHT22;37475;43.358;1.248;2023-03-04T10:33:42;8.20;63.10
51383;DHT22;37475;43.358;1.248;2023-03-04T10:39:33;8.40;60.30
51383;DHT22;37475;43.358;1.248;2023-03-04T10:42:04;8.20;61.10
51383;DHT22;37475;43.358;1.248;2023-03-04T10:44:33;8.00;61.00
51383;DHT22;37475;43.358;1.248;2023-03-04T10:47:00;8.10;60.60
51383;DHT22;37475;43.358;1.248;2023-03-04T10:49:27;8.30;58.80
51383;DHT22;37475;43.358;1.248;2023-03-04T10:52:01;8.80;58.70
51383;DHT22;37475;43.358;1.248;2023-03-04T10:54:53;8.70;57.40
51383;DHT22;37475;43.358;1.248;2023-03-04T10:57:33;8.70;58.70
51383;DHT22;37475;43.358;1.248;2023-03-04T11:00:01;8.30;58.00
51383;DHT22;37475;43.358;1.248;2023-03-04T11:02:43;8.50;59.80
51383;DHT22;37475;43.358;1.248;2023-03-04T11:05:24;8.70;58.10
51383;DHT22;37475;43.358;1.248;2023-03-04T11:07:55;9.00;57.10
51383;DHT22;37475;43.358;1.248;2023-03-04T11:10:29;9.40;58.30
51383;DHT22;37475;43.358;1.248;2023-03-04T11:15:25;8.60;58.20
51383;DHT22;37475;43.358;1.248;2023-03-04T11:17:56;8.70;57.80
51383;DHT22;37475;43.358;1.248;2023-03-04T11:20:36;8.70;57.50
51383;DHT22;37475;43.358;1.248;2023-03-04T11:23:11;9.10;56.60
51383;DHT22;37475;43.358;1.248;2023-03-04T11:25:50;9.40;56.10
51383;DHT22;37475;43.358;1.248;2023-03-04T11:28:27;9.70;58.00
51383;DHT22;37475;43.358;1.248;2023-03-04T11:31:02;9.20;56.80
51383;DHT22;37475;43.358;1.248;2023-03-04T11:39:16;9.10;57.60
51383;DHT22;37475;43.358;1.248;2023-03-04T11:41:53;9.20;57.20
51383;DHT22;37475;43.358;1.248;2023-03-04T11:44:23;9.60;57.00
51383;DHT22;37475;43.358;1.248;2023-03-04T11:47:21;10.00;53.10
51383;DHT22;37475;43.358;1.248;2023-03-04T11:53:00;9.70;54.70
51383;DHT22;37475;43.358;1.248;2023-03-04T11:55:42;9.30;57.20
51383;DHT22;37475;43.358;1.248;2023-03-04T12:04:30;10.00;53.70
51383;DHT22;37475;43.358;1.248;2023-03-04T12:10:03;9.90;54.00
51383;DHT22;37475;43.358;1.248;2023-03-04T12:15:58;9.90;54.10
51383;DHT22;37475;43.358;1.248;2023-03-04T12:18:44;10.20;56.00
51383;DHT22;37475;43.358;1.248;2023-03-04T12:30:44;9.80;56.10
51383;DHT22;37475;43.358;1.248;2023-03-04T12:33:58;10.10;54.80
51383;DHT22;37475;43.358;1.248;2023-03-04T12:40:11;11.10;51.70
51383;DHT22;37475;43.358;1.248;2023-03-04T12:46:06;11.10;52.40
51383;DHT22;37475;43.358;1.248;2023-03-04T12:48:44;10.20;55.00
51383;DHT22;37475;43.358;1.248;2023-03-04T12:57:25;12.10;50.00
51383;DHT22;37475;43.358;1.248;2023-03-04T13:00:21;12.00;50.00
51383;DHT22;37475;43.358;1.248;2023-03-04T13:03:32;12.40;47.60
51383;DHT22;37475;43.358;1.248;2023-03-04T13:17:47;11.10;52.70
51383;DHT22;37475;43.358;1.248;2023-03-04T13:25:39;13.20;47.50
51383;DHT22;37475;43.358;1.248;2023-03-04T13:43:49;12.30;49.90
51383;DHT22;37475;43.358;1.248;2023-03-04T13:54:31;12.90;46.50
51383;DHT22;37475;43.358;1.248;2023-03-04T13:59:29;11.30;53.50
51383;DHT22;37475;43.358;1.248;2023-03-04T14:02:16;10.80;54.10
51383;DHT22;37475;43.358;1.248;2023-03-04T14:07:51;11.10;52.20
51383;DHT22;37475;43.358;1.248;2023-03-04T14:12:57;13.10;46.20
51383;DHT22;37475;43.358;1.248;2023-03-04T14:17:58;14.60;43.30
51383;DHT22;37475;43.358;1.248;2023-03-04T14:20:29;14.60;43.30
51383;DHT22;37475;43.358;1.248;2023-03-04T14:22:58;14.30;43.60
51383;DHT22;37475;43.358;1.248;2023-03-04T14:25:33;12.30;48.70
51383;DHT22;37475;43.358;1.248;2023-03-04T14:28:04;11.40;50.50
51383;DHT22;37475;43.358;1.248;2023-03-04T14:30:33;11.90;51.10
51383;DHT22;37475;43.358;1.248;2023-03-04T14:32:59;11.50;52.20
51383;DHT22;37475;43.358;1.248;2023-03-04T14:35:30;12.00;52.20
51383;DHT22;37475;43.358;1.248;2023-03-04T14:41:04;12.50;48.60
51383;DHT22;37475;43.358;1.248;2023-03-04T14:43:41;12.90;47.40
51383;DHT22;37475;43.358;1.248;2023-03-04T14:46:16;13.20;46.40
51383;DHT22;37475;43.358;1.248;2023-03-04T14:48:50;12.80;51.20
51383;DHT22;37475;43.358;1.248;2023-03-04T14:51:37;13.30;48.00
51383;DHT22;37475;43.358;1.248;2023-03-04T14:54:06;12.90;49.50
51383;DHT22;37475;43.358;1.248;2023-03-04T14:56:49;13.10;48.70
51383;DHT22;37475;43.358;1.248;2023-03-04T14:59:15;12.20;50.10
51383;DHT22;37475;43.358;1.248;2023-03-04T15:01:40;11.80;50.70
51383;DHT22;37475;43.358;1.248;2023-03-04T15:04:08;12.30;49.80
51383;DHT22;37475;43.358;1.248;2023-03-04T15:06:54;11.80;53.80
51383;DHT22;37475;43.358;1.248;2023-03-04T15:09:24;11.90;51.90
51383;DHT22;37475;43.358;1.248;2023-03-04T15:12:00;11.40;52.60
51383;DHT22;37475;43.358;1.248;2023-03-04T15:17:39;11.60;52.30
51383;DHT22;37475;43.358;1.248;2023-03-04T15:25:05;10.50;55.10
51383;DHT22;37475;43.358;1.248;2023-03-04T15:27:31;10.60;54.50
51383;DHT22;37475;43.358;1.248;2023-03-04T15:29:58;10.60;55.20
51383;DHT22;37475;43.358;1.248;2023-03-04T15:32:29;10.70;55.10
51383;DHT22;37475;43.358;1.248;2023-03-04T15:34:55;10.80;55.90
51383;DHT22;37475;43.358;1.248;2023-03-04T15:37:24;10.90;56.30
51383;DHT22;37475;43.358;1.248;2023-03-04T15:39:52;10.90;55.20
51383;DHT22;37475;43.358;1.248;2023-03-04T15:42:20;11.00;55.70
51383;DHT22;37475;43.358;1.248;2023-03-04T15:44:46;11.20;53.50
51383;DHT22;37475;43.358;1.248;2023-03-04T15:47:12;11.20;52.40
51383;DHT22;37475;43.358;1.248;2023-03-04T15:49:39;11.10;53.10
51383;DHT22;37475;43.358;1.248;2023-03-04T15:52:12;11.10;54.50
51383;DHT22;37475;43.358;1.248;2023-03-04T15:54:47;11.40;53.20
51383;DHT22;37475;43.358;1.248;2023-03-04T15:57:25;11.30;53.50
51383;DHT22;37475;43.358;1.248;2023-03-04T15:59:52;11.10;54.00
51383;DHT22;37475;43.358;1.248;2023-03-04T16:02:20;11.10;53.10
51383;DHT22;37475;43.358;1.248;2023-03-04T16:04:47;11.20;52.80
51383;DHT22;37475;43.358;1.248;2023-03-04T16:07:18;11.10;53.20
51383;DHT22;37475;43.358;1.248;2023-03-04T16:09:45;11.20;52.80
51383;DHT22;37475;43.358;1.248;2023-03-04T16:12:15;11.10;52.20
51383;DHT22;37475;43.358;1.248;2023-03-04T16:14:40;11.10;52.40
51383;DHT22;37475;43.358;1.248;2023-03-04T16:17:08;10.90;53.20
51383;DHT22;37475;43.358;1.248;2023-03-04T16:19:34;10.90;54.50
51383;DHT22;37475;43.358;1.248;2023-03-04T16:22:00;10.90;53.10
51383;DHT22;37475;43.358;1.248;2023-03-04T16:24:28;10.90;53.30
51383;DHT22;37475;43.358;1.248;2023-03-04T16:26:57;10.70;53.80
51383;DHT22;37475;43.358;1.248;2023-03-04T16:29:23;10.60;54.30
51383;DHT22;37475;43.358;1.248;2023-03-04T16:31:48;10.70;54.90
51383;DHT22;37475;43.358;1.248;2023-03-04T16:34:14;10.70;54.20
51383;DHT22;37475;43.358;1.248;2023-03-04T16:36:40;10.70;54.50
51383;DHT22;37475;43.358;1.248;2023-03-04T16:39:19;10.70;54.60
51383;DHT22;37475;43.358;1.248;2023-03-04T16:41:46;10.80;53.70
51383;DHT22;37475;43.358;1.248;2023-03-04T16:44:12;10.90;53.90
51383;DHT22;37475;43.358;1.248;2023-03-04T16:46:39;10.90;54.40
51383;DHT22;37475;43.358;1.248;2023-03-04T16:49:05;10.70;54.20
51383;DHT22;37475;43.358;1.248;2023-03-04T16:51:34;10.60;55.30
51383;DHT22;37475;43.358;1.248;2023-03-04T16:54:06;10.40;55.50
51383;DHT22;37475;43.358;1.248;2023-03-04T16:56:38;10.50;55.70
51383;DHT22;37475;43.358;1.248;2023-03-04T16:59:04;10.60;56.30
51383;DHT22;37475;43.358;1.248;2023-03-04T17:01:30;10.50;56.50
51383;DHT22;37475;43.358;1.248;2023-03-04T17:03:58;10.50;56.80
51383;DHT22;37475;43.358;1.248;2023-03-04T17:06:24;10.30;57.20
51383;DHT22;37475;43.358;1.248;2023-03-04T17:08:49;10.20;57.00
51383;DHT22;37475;43.358;1.248;2023-03-04T17:11:19;10.10;56.10
51383;DHT22;37475;43.358;1.248;2023-03-04T17:13:47;10.10;55.50
51383;DHT22;37475;43.358;1.248;2023-03-04T17:16:14;10.10;55.80
51383;DHT22;37475;43.358;1.248;2023-03-04T17:18:42;10.10;56.60
51383;DHT22;37475;43.358;1.248;2023-03-04T17:21:12;10.10;56.70
51383;DHT22;37475;43.358;1.248;2023-03-04T17:23:40;10.10;56.50
51383;DHT22;37475;43.358;1.248;2023-03-04T17:26:07;10.10;56.70
51383;DHT22;37475;43.358;1.248;2023-03-04T17:28:34;10.00;57.00
51383;DHT22;37475;43.358;1.248;2023-03-04T17:31:06;10.00;57.30
51383;DHT22;37475;43.358;1.248;2023-03-04T17:33:34;9.90;56.80
51383;DHT22;37475;43.358;1.248;2023-03-04T17:36:00;9.70;58.00
51383;DHT22;37475;43.358;1.248;2023-03-04T17:38:26;9.70;57.90
51383;DHT22;37475;43.358;1.248;2023-03-04T17:40:53;9.70;58.50
51383;DHT22;37475;43.358;1.248;2023-03-04T17:43:21;9.60;58.50
51383;DHT22;37475;43.358;1.248;2023-03-04T17:45:47;9.60;58.40
51383;DHT22;37475;43.358;1.248;2023-03-04T17:48:14;9.60;58.50
51383;DHT22;37475;43.358;1.248;2023-03-04T17:51:01;9.40;59.30